Time;durP1;ratioP1;P1;durP2;ratioP2;P2;SDS_P1;SDS_P2;PMS_P1;PMS_P2;Temp;Humidity;BMP_temperature;BMP_pressure;BME280_temperature;BME280_humidity;BME280_pressure;Samples;Min_cycle;Max_cycle;Signal;HPM_P1;HPM_P2
2023/08/02 00:00:34;;;;;;;2.05;1.08;;;19.20;66.00;;;;;;5061270;28;20036;-72
2023/08/02 00:03:00;;;;;;;3.28;0.90;;;19.20;66.10;;;;;;5063063;28;20032;-72
2023/08/02 00:05:27;;;;;;;1.38;0.77;;;19.20;66.30;;;;;;5057000;28;20789;-72
2023/08/02 00:07:57;;;;;;;2.70;0.85;;;19.10;66.20;;;;;;5046996;28;20064;-73
2023/08/02 00:10:24;;;;;;;1.45;0.90;;;19.20;66.50;;;;;;5060013;28;20911;-72
2023/08/02 00:12:51;;;;;;;1.77;0.60;;;19.10;66.40;;;;;;5058303;28;20049;-71
2023/08/02 00:15:20;;;;;;;1.90;1.10;;;19.10;66.60;;;;;;5059710;28;20036;-71
2023/08/02 00:17:47;;;;;;;2.88;1.13;;;19.10;66.70;;;;;;5066488;28;20036;-72
2023/08/02 00:20:13;;;;;;;2.05;1.00;;;19.10;66.70;;;;;;5062440;28;20059;-72
2023/08/02 00:22:40;;;;;;;2.03;0.98;;;19.10;66.80;;;;;;5064090;28;20040;-72
2023/08/02 00:25:07;;;;;;;1.60;0.52;;;19.10;66.90;;;;;;5067153;28;20500;-70
2023/08/02 00:27:33;;;;;;;1.25;0.57;;;19.20;67.20;;;;;;5065465;28;20094;-73
2023/08/02 00:29:59;;;;;;;0.70;0.70;;;19.10;67.20;;;;;;5068667;28;20094;-72
2023/08/02 00:32:24;;;;;;;2.50;0.60;;;19.10;67.30;;;;;;5067164;28;20063;-72
2023/08/02 00:34:54;;;;;;;1.95;0.70;;;19.10;67.50;;;;;;5077287;28;20055;-72
2023/08/02 00:37:23;;;;;;;0.60;0.52;;;19.10;67.60;;;;;;5087637;28;20139;-71
2023/08/02 00:39:51;;;;;;;11.02;0.88;;;19.10;67.80;;;;;;5087127;28;20066;-71
2023/08/02 00:42:17;;;;;;;0.60;0.30;;;19.10;67.90;;;;;;5088139;28;20027;-69
2023/08/02 00:44:43;;;;;;;0.82;0.60;;;19.10;68.00;;;;;;5082675;28;20035;-75
2023/08/02 00:47:12;;;;;;;2.92;0.68;;;19.10;68.10;;;;;;5082178;28;20490;-70
2023/08/02 00:49:39;;;;;;;1.00;0.45;;;19.00;68.10;;;;;;5082595;28;20484;-72
2023/08/02 00:52:06;;;;;;;1.25;0.75;;;19.00;68.20;;;;;;5078595;28;20378;-75
2023/08/02 00:54:33;;;;;;;1.75;0.50;;;19.00;68.40;;;;;;5081883;28;20036;-75
2023/08/02 00:56:59;;;;;;;0.60;0.38;;;19.00;68.50;;;;;;5078378;28;20056;-76
2023/08/02 00:59:25;;;;;;;0.68;0.30;;;19.00;68.70;;;;;;5084991;28;20051;-70
2023/08/02 01:01:51;;;;;;;0.30;0.28;;;19.00;68.90;;;;;;5076522;28;20032;-73
2023/08/02 01:04:17;;;;;;;0.73;0.28;;;19.00;68.90;;;;;;5085810;28;20031;-69
2023/08/02 01:06:56;;;;;;;0.55;0.30;;;19.00;69.00;;;;;;5090654;28;20062;-68
2023/08/02 01:09:35;;;;;;;1.35;0.55;;;19.00;69.40;;;;;;5082179;28;20048;-69
2023/08/02 01:12:10;;;;;;;2.63;0.43;;;19.00;69.40;;;;;;5088506;28;20035;-72
2023/08/02 01:14:49;;;;;;;1.92;0.38;;;19.00;69.40;;;;;;5080948;28;20082;-70
2023/08/02 01:17:16;;;;;;;1.33;0.30;;;19.00;69.60;;;;;;5084588;28;20050;-70
2023/08/02 01:19:43;;;;;;;0.88;0.38;;;19.00;69.60;;;;;;5079860;28;20115;-69
2023/08/02 01:22:09;;;;;;;1.10;0.30;;;19.00;69.70;;;;;;5078891;28;20036;-69
2023/08/02 01:24:36;;;;;;;0.15;0.15;;;19.00;69.90;;;;;;5078813;28;20043;-69
2023/08/02 01:27:09;;;;;;;2.70;0.60;;;19.00;69.90;;;;;;5080193;28;20046;-69
2023/08/02 01:29:41;;;;;;;1.40;0.25;;;19.00;70.10;;;;;;5081738;28;20069;-68
2023/08/02 01:32:09;;;;;;;0.20;0.20;;;19.00;70.20;;;;;;5079853;28;20751;-68
2023/08/02 01:34:37;;;;;;;2.22;0.20;;;19.00;70.20;;;;;;5081280;28;20067;-67
2023/08/02 01:37:03;;;;;;;2.05;0.40;;;19.00;70.30;;;;;;5078075;28;20113;-67
2023/08/02 01:39:30;;;;;;;0.40;0.20;;;19.00;70.50;;;;;;5084414;28;20035;-68
2023/08/02 01:41:56;;;;;;;1.95;0.30;;;19.00;70.70;;;;;;5084369;28;20021;-67
2023/08/02 01:44:23;;;;;;;1.05;0.20;;;19.00;70.70;;;;;;5067294;28;20044;-68
2023/08/02 01:46:49;;;;;;;0.20;0.10;;;19.00;70.80;;;;;;5086367;28;20126;-69
2023/08/02 01:49:15;;;;;;;0.55;0.10;;;19.00;70.90;;;;;;5080010;28;20174;-67
2023/08/02 01:51:41;;;;;;;0.15;0.10;;;19.00;71.00;;;;;;5094530;28;20094;-73
2023/08/02 01:54:07;;;;;;;2.15;0.20;;;19.00;71.10;;;;;;5083660;28;20043;-75
2023/08/02 01:56:33;;;;;;;0.38;0.13;;;19.00;71.20;;;;;;5094925;28;20118;-71
2023/08/02 01:59:02;;;;;;;0.20;0.10;;;19.00;71.20;;;;;;5089791;28;20032;-69
2023/08/02 02:01:28;;;;;;;0.20;0.20;;;19.10;71.50;;;;;;5096606;28;20096;-71
2023/08/02 02:03:54;;;;;;;0.32;0.13;;;19.10;71.60;;;;;;5090198;28;20044;-68
2023/08/02 02:06:20;;;;;;;0.52;0.20;;;19.10;71.80;;;;;;5069974;28;20526;-72
2023/08/02 02:08:47;;;;;;;1.13;0.10;;;19.10;71.90;;;;;;5069016;28;20047;-78
2023/08/02 02:11:13;;;;;;;1.48;0.20;;;19.10;71.90;;;;;;5087017;28;20024;-76
2023/08/02 02:13:40;;;;;;;0.35;0.10;;;19.10;72.00;;;;;;5080523;28;20134;-78
2023/08/02 02:16:06;;;;;;;0.40;0.13;;;19.10;72.10;;;;;;5078353;28;20511;-79
2023/08/02 02:18:32;;;;;;;1.27;0.20;;;19.10;72.10;;;;;;5081048;28;20062;-78
2023/08/02 02:20:59;;;;;;;0.50;0.38;;;19.10;72.20;;;;;;5073995;28;20165;-77
2023/08/02 02:23:25;;;;;;;1.23;0.10;;;19.10;72.30;;;;;;5078851;28;20115;-77
2023/08/02 02:25:51;;;;;;;1.00;0.15;;;19.20;72.60;;;;;;5090339;28;20036;-76
2023/08/02 02:28:19;;;;;;;0.85;0.50;;;19.20;72.60;;;;;;5079442;28;20066;-72
2023/08/02 02:30:45;;;;;;;0.35;0.20;;;19.20;72.70;;;;;;5079771;28;20052;-75
2023/08/02 02:33:12;;;;;;;0.55;0.20;;;19.20;72.90;;;;;;5088482;28;20040;-69
2023/08/02 02:35:39;;;;;;;0.55;0.20;;;19.20;73.00;;;;;;5082173;28;20179;-71
2023/08/02 02:38:05;;;;;;;0.63;0.20;;;19.20;73.10;;;;;;5087130;28;20040;-72
2023/08/02 02:40:31;;;;;;;1.23;0.20;;;19.20;73.20;;;;;;5088101;28;20046;-76
2023/08/02 02:42:57;;;;;;;0.63;0.20;;;19.20;73.30;;;;;;5089911;28;20024;-73
2023/08/02 02:45:23;;;;;;;1.23;0.20;;;19.20;73.30;;;;;;5071491;28;20066;-72
2023/08/02 02:47:48;;;;;;;1.00;0.22;;;19.20;73.40;;;;;;5080672;28;20048;-73
2023/08/02 02:50:15;;;;;;;0.28;0.20;;;19.20;73.40;;;;;;5082353;28;20044;-76
2023/08/02 02:52:41;;;;;;;0.93;0.40;;;19.20;73.60;;;;;;5080044;28;20054;-69
2023/08/02 02:55:09;;;;;;;1.33;0.77;;;19.20;73.60;;;;;;5094982;28;20508;-77
2023/08/02 02:57:35;;;;;;;0.20;0.20;;;19.20;73.70;;;;;;5083193;28;20652;-74
2023/08/02 03:00:01;;;;;;;0.77;0.40;;;19.20;73.80;;;;;;5090381;28;20031;-74
2023/08/02 03:02:27;;;;;;;2.13;0.47;;;19.20;73.90;;;;;;5081067;28;20024;-78
2023/08/02 03:04:53;;;;;;;0.60;0.50;;;19.20;73.90;;;;;;5094926;28;20038;-70
2023/08/02 03:07:19;;;;;;;0.98;0.30;;;19.30;74.20;;;;;;5079490;28;20115;-69
2023/08/02 03:09:45;;;;;;;1.02;0.30;;;19.30;74.30;;;;;;5082186;28;20047;-68
2023/08/02 03:12:11;;;;;;;1.88;0.30;;;19.20;74.30;;;;;;5091119;28;20020;-67
2023/08/02 03:14:37;;;;;;;0.63;0.22;;;19.30;74.60;;;;;;5091134;28;20035;-68
2023/08/02 03:17:03;;;;;;;1.33;0.73;;;19.30;74.60;;;;;;5085244;28;20116;-68
2023/08/02 03:19:29;;;;;;;1.38;0.20;;;19.30;74.60;;;;;;5086614;28;20093;-68
2023/08/02 03:21:55;;;;;;;2.78;0.35;;;19.30;74.70;;;;;;5084416;28;20742;-68
2023/08/02 03:24:21;;;;;;;3.85;0.98;;;19.30;74.60;;;;;;5083159;28;20062;-68
2023/08/02 03:26:47;;;;;;;2.83;0.65;;;19.30;74.70;;;;;;5085268;28;20596;-68
2023/08/02 03:29:12;;;;;;;3.97;0.70;;;19.30;74.70;;;;;;5080941;28;20024;-68
2023/08/02 03:31:38;;;;;;;4.65;1.00;;;19.30;74.60;;;;;;5084962;28;20031;-67
2023/08/02 03:34:04;;;;;;;5.28;1.40;;;19.30;74.70;;;;;;5090070;28;20079;-71
2023/08/02 03:36:30;;;;;;;4.95;1.55;;;19.30;74.60;;;;;;5080795;28;20477;-68
2023/08/02 03:38:56;;;;;;;6.32;1.40;;;19.30;74.60;;;;;;5090584;28;20035;-68
2023/08/02 03:41:22;;;;;;;7.97;1.67;;;19.30;74.70;;;;;;5083979;28;20488;-69
2023/08/02 03:43:48;;;;;;;9.60;2.35;;;19.30;74.60;;;;;;5088895;28;20042;-68
2023/08/02 03:46:14;;;;;;;8.15;1.48;;;19.20;74.50;;;;;;5075574;28;20499;-69
2023/08/02 03:48:40;;;;;;;5.53;1.70;;;19.20;74.50;;;;;;5084007;28;20043;-68
2023/08/02 03:51:06;;;;;;;6.95;2.00;;;19.20;74.50;;;;;;5074378;28;21302;-79
2023/08/02 03:53:32;;;;;;;5.80;1.80;;;19.20;74.50;;;;;;5078915;28;20031;-68
2023/08/02 03:55:58;;;;;;;8.75;2.28;;;19.20;74.50;;;;;;5088345;28;20032;-68
2023/08/02 03:58:24;;;;;;;9.18;2.08;;;19.20;74.50;;;;;;5097176;28;20336;-73
2023/08/02 04:00:51;;;;;;;8.65;1.95;;;19.20;74.50;;;;;;5079449;28;20044;-69
2023/08/02 04:03:16;;;;;;;11.77;3.15;;;19.20;74.50;;;;;;5083699;28;20435;-68
2023/08/02 04:05:43;;;;;;;6.97;2.13;;;19.10;74.30;;;;;;5089265;28;20032;-69
2023/08/02 04:08:09;;;;;;;8.80;2.92;;;19.10;74.30;;;;;;5083196;28;20123;-71
2023/08/02 04:10:38;;;;;;;6.32;1.95;;;19.10;74.20;;;;;;5092162;28;20122;-73
2023/08/02 04:13:04;;;;;;;8.23;2.33;;;19.10;74.20;;;;;;5086311;28;20025;-74
2023/08/02 04:15:31;;;;;;;7.70;2.00;;;19.10;74.20;;;;;;5089163;28;20066;-68
2023/08/02 04:17:57;;;;;;;7.00;1.90;;;19.10;74.10;;;;;;5096645;28;20028;-71
2023/08/02 04:20:23;;;;;;;6.53;1.83;;;19.10;74.10;;;;;;5086688;28;20029;-70
2023/08/02 04:22:49;;;;;;;8.98;2.13;;;19.10;74.10;;;;;;5093458;28;20035;-71
2023/08/02 04:25:16;;;;;;;11.07;1.83;;;19.10;74.00;;;;;;5091263;28;20555;-69
2023/08/02 04:27:42;;;;;;;9.38;2.15;;;19.00;73.80;;;;;;5096507;28;20032;-74
2023/08/02 04:30:08;;;;;;;7.07;1.88;;;19.00;73.80;;;;;;5088527;28;20119;-68
2023/08/02 04:32:34;;;;;;;6.75;1.95;;;19.10;74.00;;;;;;5096065;27;20039;-69
2023/08/02 04:35:01;;;;;;;5.25;1.77;;;19.00;73.70;;;;;;5092549;28;20071;-72
2023/08/02 04:37:28;;;;;;;9.55;2.33;;;19.00;73.70;;;;;;5090077;28;20105;-68
2023/08/02 04:39:54;;;;;;;9.00;2.58;;;19.00;73.60;;;;;;5092125;28;20147;-67
2023/08/02 04:42:20;;;;;;;5.60;1.65;;;19.00;73.60;;;;;;5095615;28;20031;-73
2023/08/02 04:44:46;;;;;;;8.55;1.58;;;19.00;73.50;;;;;;5085369;28;20044;-75
2023/08/02 04:47:12;;;;;;;8.80;2.40;;;18.90;73.30;;;;;;5083843;28;20053;-69
2023/08/02 04:49:38;;;;;;;5.43;1.00;;;19.00;73.40;;;;;;5074592;28;20426;-68
2023/08/02 04:52:04;;;;;;;9.85;1.42;;;18.90;73.20;;;;;;5083942;28;20027;-69
2023/08/02 04:54:30;;;;;;;6.85;1.25;;;18.90;73.20;;;;;;5090788;28;20032;-67
2023/08/02 04:56:56;;;;;;;10.13;1.30;;;18.90;73.10;;;;;;5084486;28;20490;-67
2023/08/02 04:59:23;;;;;;;5.50;1.30;;;18.90;73.10;;;;;;5090688;28;20050;-69
2023/08/02 05:01:49;;;;;;;4.03;1.20;;;18.80;72.90;;;;;;5088126;28;20039;-70
2023/08/02 05:04:16;;;;;;;3.45;1.08;;;18.90;73.00;;;;;;5088212;28;20085;-67
2023/08/02 05:06:42;;;;;;;3.13;1.00;;;18.80;72.80;;;;;;5084480;28;20498;-68
2023/08/02 05:09:09;;;;;;;8.68;2.15;;;18.80;72.80;;;;;;5078255;28;20065;-67
2023/08/02 05:11:37;;;;;;;4.95;1.60;;;18.80;72.70;;;;;;5081102;28;20040;-69
2023/08/02 05:14:03;;;;;;;7.57;1.50;;;18.80;72.70;;;;;;5085128;28;20399;-69
2023/08/02 05:16:29;;;;;;;3.13;0.88;;;18.80;72.70;;;;;;5086600;28;20049;-69
2023/08/02 05:18:56;;;;;;;6.18;2.05;;;18.80;72.70;;;;;;5081919;28;20597;-69
2023/08/02 05:21:23;;;;;;;6.30;1.40;;;18.80;72.70;;;;;;5082107;28;20032;-71
2023/08/02 05:23:49;;;;;;;4.55;1.00;;;18.80;72.60;;;;;;5084391;28;20522;-69
2023/08/02 05:26:15;;;;;;;4.32;1.40;;;18.80;72.60;;;;;;5080169;28;20505;-69
2023/08/02 05:28:41;;;;;;;3.00;0.70;;;18.80;72.60;;;;;;5082041;28;20452;-69
2023/08/02 05:31:12;;;;;;;4.70;1.15;;;18.80;72.60;;;;;;5076937;28;20040;-67
2023/08/02 05:33:38;;;;;;;4.95;1.00;;;18.80;72.60;;;;;;5080212;28;20688;-69
2023/08/02 05:36:05;;;;;;;4.25;1.00;;;18.80;72.80;;;;;;5073245;28;20385;-74
2023/08/02 05:38:34;;;;;;;6.03;1.55;;;18.80;72.50;;;;;;5083402;28;20128;-71
2023/08/02 05:41:01;;;;;;;3.58;1.08;;;18.70;72.20;;;;;;5076055;28;20146;-71
2023/08/02 05:43:27;;;;;;;3.78;0.50;;;18.80;72.40;;;;;;5083817;28;20055;-69
2023/08/02 05:45:53;;;;;;;5.10;1.65;;;18.80;72.20;;;;;;5080627;28;20032;-70
2023/08/02 05:48:19;;;;;;;5.03;1.20;;;18.80;72.30;;;;;;5069733;28;20112;-78
2023/08/02 05:50:45;;;;;;;4.20;1.08;;;18.80;72.80;;;;;;5072592;28;20047;-71
2023/08/02 05:53:11;;;;;;;4.88;1.10;;;18.90;73.40;;;;;;5069360;28;20027;-69
2023/08/02 05:55:38;;;;;;;4.28;1.92;;;19.00;73.80;;;;;;5072858;28;20043;-71
2023/08/02 05:58:04;;;;;;;5.05;1.23;;;19.10;74.10;;;;;;5078222;28;20168;-72
2023/08/02 06:00:30;;;;;;;3.53;1.20;;;19.20;74.50;;;;;;5077696;28;20043;-76
2023/08/02 06:02:56;;;;;;;3.17;1.60;;;19.20;74.50;;;;;;5073846;28;20290;-74
2023/08/02 06:05:22;;;;;;;2.53;0.80;;;19.30;74.70;;;;;;5075525;28;20740;-69
2023/08/02 06:07:48;;;;;;;1.92;0.73;;;19.40;74.90;;;;;;5066016;28;20687;-77
2023/08/02 06:10:13;;;;;;;7.07;1.45;;;19.50;75.00;;;;;;5069671;28;20145;-72
2023/08/02 06:12:39;;;;;;;4.95;1.42;;;19.50;74.90;;;;;;5078608;28;20039;-68
2023/08/02 06:15:06;;;;;;;8.95;1.58;;;19.60;75.00;;;;;;5067225;28;20453;-73
2023/08/02 06:17:32;;;;;;;3.92;1.02;;;19.70;75.20;;;;;;5077440;28;20088;-73
2023/08/02 06:19:59;;;;;;;4.95;1.23;;;19.90;75.40;;;;;;5078712;28;20032;-69
2023/08/02 06:22:26;;;;;;;4.53;1.55;;;19.90;75.20;;;;;;5076613;28;20044;-70
2023/08/02 06:24:51;;;;;;;4.28;1.17;;;20.00;74.90;;;;;;5080008;28;20039;-80
2023/08/02 06:27:17;;;;;;;6.07;1.63;;;20.10;74.70;;;;;;5078447;28;20467;-77
2023/08/02 06:29:43;;;;;;;4.95;1.17;;;20.20;74.50;;;;;;5080314;28;20047;-77
2023/08/02 06:32:09;;;;;;;3.65;1.20;;;20.30;74.30;;;;;;5077958;28;20062;-75
2023/08/02 06:34:35;;;;;;;6.05;1.10;;;20.50;74.20;;;;;;5077253;28;20134;-77
2023/08/02 06:37:01;;;;;;;4.13;2.10;;;20.70;74.00;;;;;;5077711;28;20024;-70
2023/08/02 06:39:27;;;;;;;6.60;1.75;;;20.80;73.60;;;;;;5079850;28;20043;-71
2023/08/02 06:41:53;;;;;;;6.47;1.52;;;20.90;73.30;;;;;;5079733;28;20105;-76
2023/08/02 06:44:21;;;;;;;5.55;0.93;;;20.90;72.90;;;;;;5082737;28;20124;-75
2023/08/02 06:46:47;;;;;;;6.65;1.83;;;20.90;72.60;;;;;;5082400;28;20042;-72
2023/08/02 06:49:13;;;;;;;5.40;1.13;;;20.90;72.40;;;;;;5075934;28;20025;-69
2023/08/02 06:51:39;;;;;;;5.43;1.58;;;20.90;72.30;;;;;;5085879;28;20035;-70
2023/08/02 06:54:05;;;;;;;4.00;1.10;;;20.90;72.20;;;;;;5099763;28;20521;-72
2023/08/02 06:56:31;;;;;;;9.07;1.70;;;20.90;72.10;;;;;;5079580;28;20036;-78
2023/08/02 06:58:57;;;;;;;4.57;1.55;;;20.90;71.90;;;;;;5082118;28;20032;-68
2023/08/02 07:01:23;;;;;;;2.92;1.00;;;21.00;71.90;;;;;;5086581;28;20066;-74
2023/08/02 07:03:49;;;;;;;5.53;1.20;;;21.20;71.80;;;;;;5081762;28;20039;-71
2023/08/02 07:06:18;;;;;;;2.60;0.75;;;21.40;71.60;;;;;;5094316;28;20035;-70
2023/08/02 07:08:45;;;;;;;3.92;0.95;;;21.60;71.20;;;;;;5061453;28;20401;-75
2023/08/02 07:11:11;;;;;;;2.65;0.90;;;21.70;71.00;;;;;;5079855;28;20081;-70
2023/08/02 07:13:41;;;;;;;6.13;1.02;;;22.00;70.80;;;;;;5083004;28;20126;-69
2023/08/02 07:16:07;;;;;;;4.50;1.02;;;22.20;70.30;;;;;;5064786;28;20122;-75
2023/08/02 07:18:33;;;;;;;2.72;0.80;;;22.40;69.90;;;;;;5073719;28;20040;-78
2023/08/02 07:21:09;;;;;;;3.05;0.75;;;22.50;69.70;;;;;;5079334;28;20134;-71
2023/08/02 07:23:36;;;;;;;2.28;0.70;;;22.70;69.40;;;;;;5075746;28;20746;-80
2023/08/02 07:26:05;;;;;;;3.10;0.75;;;23.00;69.20;;;;;;5079847;28;20046;-79
2023/08/02 07:28:32;;;;;;;2.83;0.70;;;23.40;68.70;;;;;;5090734;28;20067;-77
2023/08/02 07:31:08;;;;;;;1.90;0.80;;;23.80;68.00;;;;;;5081249;28;20123;-70
2023/08/02 07:33:34;;;;;;;3.25;0.70;;;24.20;67.10;;;;;;5080468;28;20661;-78
2023/08/02 07:36:01;;;;;;;5.00;1.52;;;24.60;66.90;;;;;;5073940;28;20115;-71
2023/08/02 07:38:27;;;;;;;5.32;1.60;;;25.00;66.60;;;;;;5074431;28;20476;-74
2023/08/02 07:40:53;;;;;;;7.20;2.20;;;25.30;65.80;;;;;;5090483;28;20040;-71
2023/08/02 07:43:19;;;;;;;3.22;1.00;;;25.30;65.30;;;;;;5080423;28;20040;-77
2023/08/02 07:45:45;;;;;;;4.45;1.33;;;25.30;65.30;;;;;;5076560;28;20368;-80
2023/08/02 07:48:11;;;;;;;4.75;1.13;;;25.10;65.30;;;;;;5074056;28;20028;-70
2023/08/02 07:50:39;;;;;;;3.95;1.20;;;24.90;65.40;;;;;;5085331;28;20104;-79
2023/08/02 07:53:05;;;;;;;9.13;1.20;;;24.70;65.20;;;;;;5077172;28;20080;-70
2023/08/02 07:55:31;;;;;;;4.25;1.63;;;24.60;65.30;;;;;;5078780;28;20101;-71
2023/08/02 07:57:57;;;;;;;4.90;1.00;;;24.40;65.20;;;;;;5079932;28;20039;-70
2023/08/02 08:00:25;;;;;;;4.57;2.17;;;24.40;65.50;;;;;;5079768;28;20357;-76
2023/08/02 08:02:51;;;;;;;4.60;1.52;;;24.50;65.40;;;;;;5076100;28;20622;-74
2023/08/02 08:05:17;;;;;;;5.35;1.35;;;24.50;65.10;;;;;;5076083;28;20039;-76
2023/08/02 08:07:43;;;;;;;5.90;1.88;;;24.50;64.80;;;;;;5076008;28;20064;-74
2023/08/02 08:10:09;;;;;;;3.67;1.08;;;24.60;64.90;;;;;;5076843;28;20044;-79
2023/08/02 08:12:36;;;;;;;3.85;0.90;;;24.60;64.70;;;;;;5079126;28;20644;-75
2023/08/02 08:15:03;;;;;;;6.35;1.55;;;24.60;64.60;;;;;;5087400;28;20070;-75
2023/08/02 08:17:28;;;;;;;4.65;1.77;;;24.60;64.40;;;;;;5088058;28;20110;-71
2023/08/02 08:19:54;;;;;;;5.25;1.08;;;24.60;64.20;;;;;;5090281;27;20155;-70
2023/08/02 08:22:28;;;;;;;4.90;1.35;;;24.60;64.20;;;;;;5071256;28;20032;-73
2023/08/02 08:24:55;;;;;;;8.57;2.15;;;24.50;64.10;;;;;;5090549;28;20043;-78
2023/08/02 08:27:21;;;;;;;6.38;2.00;;;24.50;64.20;;;;;;5092575;28;20197;-71
2023/08/02 08:29:47;;;;;;;3.70;1.38;;;24.40;64.10;;;;;;5096510;28;20116;-68
2023/08/02 08:32:13;;;;;;;5.22;1.50;;;24.30;64.00;;;;;;5086642;28;20381;-69
2023/08/02 08:34:39;;;;;;;4.05;1.58;;;24.20;63.90;;;;;;5078855;28;20105;-68
2023/08/02 08:37:05;;;;;;;5.00;1.38;;;24.20;63.90;;;;;;5085812;28;20039;-71
2023/08/02 08:39:31;;;;;;;4.20;1.38;;;24.10;63.80;;;;;;5082467;28;20253;-69
2023/08/02 08:41:57;;;;;;;4.07;1.70;;;24.10;63.80;;;;;;5077466;28;20294;-69
2023/08/02 08:44:23;;;;;;;4.43;1.85;;;24.10;63.70;;;;;;5077854;28;20035;-72
2023/08/02 08:46:50;;;;;;;3.55;1.42;;;24.10;63.60;;;;;;5080483;28;20034;-72
2023/08/02 08:49:16;;;;;;;9.25;1.95;;;24.10;63.40;;;;;;5088516;28;20415;-72
2023/08/02 08:51:49;;;;;;;5.95;1.90;;;24.10;63.30;;;;;;5091188;28;20043;-73
2023/08/02 08:54:18;;;;;;;7.13;1.30;;;24.10;63.30;;;;;;5090962;28;20043;-73
2023/08/02 08:56:45;;;;;;;4.75;1.33;;;24.10;63.20;;;;;;5086011;28;20704;-76
2023/08/02 08:59:11;;;;;;;5.50;1.85;;;24.10;63.20;;;;;;5078881;28;20029;-75
2023/08/02 09:01:39;;;;;;;5.82;1.20;;;24.10;63.00;;;;;;5095769;28;20502;-69
2023/08/02 09:04:05;;;;;;;5.00;1.50;;;24.10;63.00;;;;;;5094449;28;20091;-68
2023/08/02 09:06:33;;;;;;;6.80;1.42;;;24.10;63.00;;;;;;5091616;28;20067;-71
2023/08/02 09:08:59;;;;;;;5.57;2.20;;;24.10;62.90;;;;;;5075788;28;20066;-77
2023/08/02 09:11:25;;;;;;;7.97;2.17;;;24.10;62.90;;;;;;5080272;28;20110;-75
2023/08/02 09:14:15;;;;;;;5.45;1.40;;;24.10;62.90;;;;;;5077796;28;20406;-68
2023/08/02 09:17:00;;;;;;;5.43;1.70;;;24.20;62.80;;;;;;5073615;28;20043;-76
2023/08/02 09:19:31;;;;;;;4.95;1.13;;;24.20;62.70;;;;;;5084217;28;20087;-71
2023/08/02 09:22:11;;;;;;;3.85;1.17;;;24.30;62.80;;;;;;5077688;28;20036;-75
2023/08/02 09:24:39;;;;;;;3.60;1.20;;;24.50;62.90;;;;;;5068287;28;20081;-72
2023/08/02 09:27:14;;;;;;;2.90;1.13;;;24.50;62.60;;;;;;5080300;28;20036;-76
2023/08/02 09:29:48;;;;;;;6.20;1.48;;;24.70;62.60;;;;;;5079878;28;20100;-70
2023/08/02 09:32:15;;;;;;;6.22;1.92;;;24.90;62.60;;;;;;5072933;28;20063;-68
2023/08/02 09:34:47;;;;;;;4.68;1.30;;;25.00;62.40;;;;;;5079984;28;20048;-69
2023/08/02 09:37:15;;;;;;;4.88;1.23;;;25.20;62.20;;;;;;5068197;28;20028;-72
2023/08/02 09:39:51;;;;;;;3.95;1.45;;;25.40;62.00;;;;;;5079141;28;20044;-68
2023/08/02 09:42:21;;;;;;;4.05;1.30;;;25.60;61.70;;;;;;5076506;28;20028;-68
2023/08/02 09:44:55;;;;;;;5.95;1.50;;;25.80;61.50;;;;;;5076371;28;20081;-72
2023/08/02 09:47:22;;;;;;;3.67;1.52;;;26.00;61.20;;;;;;5071643;28;20596;-69
2023/08/02 09:50:04;;;;;;;4.32;1.15;;;26.10;60.90;;;;;;5086042;28;20066;-74
2023/08/02 09:52:31;;;;;;;5.88;1.90;;;26.20;60.70;;;;;;5077657;28;20035;-74
2023/08/02 09:54:57;;;;;;;5.30;1.50;;;26.30;60.70;;;;;;5081547;28;20388;-69
2023/08/02 09:57:27;;;;;;;3.85;1.55;;;26.30;60.60;;;;;;5078546;28;20052;-73
2023/08/02 09:59:55;;;;;;;3.92;1.33;;;26.40;60.50;;;;;;5082666;28;20035;-74
2023/08/02 10:02:25;;;;;;;5.93;2.00;;;26.40;60.50;;;;;;5081603;28;20070;-71
2023/08/02 10:04:56;;;;;;;5.25;1.17;;;26.50;60.40;;;;;;5078638;28;20480;-71
2023/08/02 10:07:42;;;;;;;3.08;1.15;;;26.50;60.30;;;;;;5080649;28;20043;-71
2023/08/02 10:10:15;;;;;;;4.57;1.38;;;26.60;60.30;;;;;;5068905;28;20305;-74
2023/08/02 10:12:43;;;;;;;4.32;1.58;;;26.50;60.30;;;;;;5077808;28;20047;-68
2023/08/02 10:15:09;;;;;;;4.50;1.60;;;26.50;60.40;;;;;;5087937;28;20292;-69
2023/08/02 10:17:36;;;;;;;3.97;1.83;;;26.40;60.40;;;;;;5083101;28;20039;-68
2023/08/02 10:20:04;;;;;;;3.20;1.50;;;26.40;60.40;;;;;;5071357;28;20036;-67
2023/08/02 10:22:30;;;;;;;6.22;1.48;;;26.30;60.40;;;;;;5080615;28;20084;-68
2023/08/02 10:25:00;;;;;;;4.43;1.70;;;26.30;60.40;;;;;;5097089;28;20075;-69
2023/08/02 10:27:28;;;;;;;5.40;2.15;;;26.30;60.40;;;;;;5078719;28;20028;-71
2023/08/02 10:29:55;;;;;;;3.97;1.50;;;26.20;60.50;;;;;;5079107;28;20121;-70
2023/08/02 10:32:21;;;;;;;3.10;1.33;;;26.10;60.40;;;;;;5081445;28;20427;-69
2023/08/02 10:34:51;;;;;;;4.90;1.77;;;26.10;60.70;;;;;;5078266;28;20855;-69
2023/08/02 10:37:19;;;;;;;7.22;2.13;;;26.00;60.70;;;;;;5090626;28;20138;-69
2023/08/02 10:39:45;;;;;;;5.40;1.52;;;26.00;60.90;;;;;;5095191;28;20028;-71
2023/08/02 10:42:16;;;;;;;5.80;1.30;;;25.90;60.80;;;;;;5088845;28;20499;-70
2023/08/02 10:44:54;;;;;;;3.90;1.40;;;25.90;60.80;;;;;;5095601;28;20039;-68
2023/08/02 10:47:38;;;;;;;3.47;1.30;;;25.90;60.90;;;;;;5081235;28;20066;-72
2023/08/02 10:50:04;;;;;;;4.43;1.67;;;26.00;60.90;;;;;;5080294;28;20100;-69
2023/08/02 10:52:32;;;;;;;1.85;0.98;;;26.10;60.90;;;;;;5076387;28;20643;-68
2023/08/02 10:55:10;;;;;;;3.92;1.30;;;26.30;60.80;;;;;;5078249;28;20301;-68
2023/08/02 10:57:38;;;;;;;2.75;1.17;;;26.30;60.60;;;;;;5071969;28;20488;-71
2023/08/02 11:00:14;;;;;;;3.20;0.80;;;26.40;60.60;;;;;;5080907;28;20464;-69
2023/08/02 11:02:48;;;;;;;2.35;1.10;;;26.40;60.50;;;;;;5071800;28;20086;-69
2023/08/02 11:05:18;;;;;;;4.40;1.25;;;26.40;60.60;;;;;;5073229;28;20552;-74
2023/08/02 11:08:00;;;;;;;2.65;1.10;;;26.40;60.60;;;;;;5074752;28;20042;-72
2023/08/02 11:10:26;;;;;;;2.25;1.20;;;26.50;61.20;;;;;;5069034;28;20040;-69
2023/08/02 11:12:53;;;;;;;3.08;0.82;;;26.50;60.50;;;;;;5077064;28;20032;-75
2023/08/02 11:15:20;;;;;;;2.75;0.82;;;26.60;60.50;;;;;;5079578;28;20202;-70
2023/08/02 11:17:53;;;;;;;2.22;0.88;;;26.60;60.40;;;;;;5068165;28;20743;-72
2023/08/02 11:20:24;;;;;;;1.85;0.73;;;26.60;60.30;;;;;;5070560;28;20032;-72
2023/08/02 11:22:50;;;;;;;1.55;0.88;;;26.50;60.50;;;;;;5072064;28;20032;-68
2023/08/02 11:25:20;;;;;;;1.67;0.95;;;26.40;60.60;;;;;;5080595;28;20110;-68
2023/08/02 11:27:46;;;;;;;2.22;1.05;;;26.30;60.80;;;;;;5080154;28;20197;-70
2023/08/02 11:30:12;;;;;;;5.35;0.93;;;26.20;61.00;;;;;;5080199;28;20036;-71
2023/08/02 11:32:46;;;;;;;2.05;0.95;;;26.10;61.00;;;;;;5082526;28;20499;-69
2023/08/02 11:35:16;;;;;;;1.35;0.60;;;25.90;61.10;;;;;;5081095;28;20048;-69
2023/08/02 11:37:42;;;;;;;1.65;0.40;;;25.90;61.40;;;;;;5084008;28;20147;-75
2023/08/02 11:40:09;;;;;;;1.98;0.75;;;25.90;61.50;;;;;;5081655;28;20491;-69
2023/08/02 11:42:46;;;;;;;0.85;0.43;;;25.90;61.50;;;;;;5078450;28;20040;-74
2023/08/02 11:45:12;;;;;;;1.92;0.75;;;26.10;61.50;;;;;;5080562;28;20042;-75
2023/08/02 11:47:38;;;;;;;2.25;0.63;;;26.40;61.30;;;;;;5080074;28;20036;-72
2023/08/02 11:50:04;;;;;;;1.20;0.70;;;26.70;60.80;;;;;;5080626;28;20036;-69
2023/08/02 11:52:32;;;;;;;2.00;0.93;;;27.20;60.30;;;;;;5080765;28;20024;-78
2023/08/02 11:54:59;;;;;;;1.92;0.43;;;27.60;59.80;;;;;;5078077;28;20114;-69
2023/08/02 11:57:26;;;;;;;1.85;0.40;;;28.00;59.20;;;;;;5074857;28;20379;-67
2023/08/02 11:59:56;;;;;;;1.13;0.40;;;28.40;58.70;;;;;;5085728;28;20028;-68
2023/08/02 12:02:28;;;;;;;1.17;0.20;;;28.60;58.40;;;;;;5077864;28;20356;-69
2023/08/02 12:04:55;;;;;;;1.33;0.47;;;28.70;58.00;;;;;;5078036;28;20702;-67
2023/08/02 12:07:28;;;;;;;1.52;0.50;;;28.80;57.90;;;;;;5069960;28;20391;-74
2023/08/02 12:09:55;;;;;;;0.88;0.30;;;28.80;57.70;;;;;;5080079;28;20497;-68
2023/08/02 12:12:21;;;;;;;1.15;0.20;;;28.70;57.70;;;;;;5087222;28;20422;-68
2023/08/02 12:14:48;;;;;;;2.33;0.40;;;28.60;57.70;;;;;;5073703;28;20503;-68
2023/08/02 12:17:21;;;;;;;0.30;0.20;;;28.60;57.70;;;;;;5081220;28;20089;-68
2023/08/02 12:19:47;;;;;;;0.55;0.30;;;28.50;57.70;;;;;;5081356;28;20044;-70
2023/08/02 12:22:14;;;;;;;0.40;0.30;;;28.50;57.80;;;;;;5084555;28;20032;-68
2023/08/02 12:24:41;;;;;;;0.30;0.30;;;28.50;57.90;;;;;;5084885;28;20482;-70
2023/08/02 12:27:18;;;;;;;1.50;0.20;;;28.50;57.80;;;;;;5083932;28;20024;-69
2023/08/02 12:29:46;;;;;;;1.38;0.68;;;28.50;57.70;;;;;;5086450;28;20039;-68
2023/08/02 12:32:28;;;;;;;0.75;0.38;;;28.50;57.70;;;;;;5087962;28;20039;-69
2023/08/02 12:34:54;;;;;;;0.38;0.20;;;28.50;57.60;;;;;;5087200;28;20170;-68
2023/08/02 12:37:20;;;;;;;0.55;0.30;;;28.40;57.70;;;;;;5098468;28;20365;-69
2023/08/02 12:39:46;;;;;;;2.58;0.45;;;28.40;57.80;;;;;;5083102;28;20074;-75
2023/08/02 12:42:11;;;;;;;0.95;0.50;;;28.30;57.80;;;;;;5088321;28;20040;-74
2023/08/02 12:44:37;;;;;;;0.32;0.22;;;28.10;57.90;;;;;;5082087;28;20115;-72
2023/08/02 12:47:04;;;;;;;0.43;0.20;;;27.90;58.20;;;;;;5082688;28;20169;-69